createdAt,value
2023-03-29T00:02:33.809Z,-3.58
2023-03-29T00:12:41.337Z,-3.71
2023-03-29T00:22:48.619Z,-3.77
2023-03-29T00:43:02.453Z,-3.74
2023-03-29T00:53:14.176Z,-3.91
2023-03-29T01:03:27.516Z,-4.03
2023-03-29T01:13:34.830Z,-4.15
2023-03-29T01:24:09.365Z,-4.29
2023-03-29T01:34:18.402Z,-4.46
2023-03-29T01:44:30.459Z,-4.57
2023-03-29T01:54:42.190Z,-4.68
2023-03-29T02:04:54.698Z,-4.67
2023-03-29T02:15:01.943Z,-4.58
2023-03-29T02:25:08.728Z,-4.56
2023-03-29T02:35:19.164Z,-4.57
2023-03-29T02:45:28.014Z,-4.40
2023-03-29T02:55:37.002Z,-4.36
2023-03-29T03:05:43.854Z,-4.38
2023-03-29T03:15:55.041Z,-4.55
2023-03-29T03:26:02.299Z,-4.62
2023-03-29T03:36:11.081Z,-4.72
2023-03-29T03:46:19.301Z,-4.72
2023-03-29T03:56:30.075Z,-4.82
2023-03-29T04:06:37.505Z,-4.83
2023-03-29T04:16:43.257Z,-4.87
2023-03-29T04:26:50.336Z,-4.96
2023-03-29T04:36:58.942Z,-5.07
2023-03-29T04:47:06.104Z,-5.17
2023-03-29T04:57:13.414Z,-5.20
2023-03-29T05:07:20.804Z,-5.04
2023-03-29T05:17:28.152Z,-4.67
2023-03-29T05:27:36.070Z,-3.95
2023-03-29T05:37:43.124Z,-2.15
2023-03-29T05:47:50.304Z,-0.49
2023-03-29T05:57:57.713Z,0.59
2023-03-29T06:08:05.753Z,1.38
2023-03-29T06:18:12.955Z,2.18
2023-03-29T06:28:21.012Z,3.28
2023-03-29T06:38:27.103Z,3.82
2023-03-29T06:48:34.102Z,4.62
2023-03-29T06:58:41.264Z,4.57
2023-03-29T07:08:51.090Z,5.45
2023-03-29T07:18:58.844Z,6.06
2023-03-29T07:29:06.531Z,6.47
2023-03-29T07:49:22.279Z,6.26
2023-03-29T07:59:29.797Z,6.49
2023-03-29T08:09:37.703Z,6.79
2023-03-29T08:19:51.054Z,7.02
2023-03-29T08:40:08.063Z,7.13
2023-03-29T08:50:16.231Z,7.20
2023-03-29T09:00:27.212Z,7.64
2023-03-29T09:10:39.706Z,7.79
2023-03-29T09:20:45.312Z,7.49
2023-03-29T09:30:51.479Z,7.61
2023-03-29T09:41:01.928Z,7.96
2023-03-29T09:51:11.748Z,8.36
2023-03-29T10:01:19.524Z,8.47
2023-03-29T10:11:33.149Z,8.55
2023-03-29T10:21:41.231Z,8.65
2023-03-29T10:31:48.282Z,8.58
2023-03-29T10:41:53.937Z,8.87
2023-03-29T10:52:02.309Z,9.07
2023-03-29T11:02:25.893Z,9.31
2023-03-29T11:12:31.446Z,9.23
2023-03-29T11:22:38.936Z,9.07
2023-03-29T11:32:47.979Z,9.10
2023-03-29T11:42:58.866Z,9.15
2023-03-29T11:53:07.371Z,9.17
2023-03-29T12:03:22.720Z,9.07
2023-03-29T12:13:32.573Z,9.05
2023-03-29T12:23:42.521Z,9.03
2023-03-29T12:34:16.495Z,8.71
2023-03-29T12:44:24.879Z,8.64
2023-03-29T12:54:32.699Z,8.86
2023-03-29T13:04:37.694Z,9.01
2023-03-29T13:25:01.517Z,8.79
2023-03-29T13:35:16.004Z,8.80
2023-03-29T13:55:33.636Z,8.77
2023-03-29T14:05:49.312Z,8.86
2023-03-29T14:15:57.414Z,8.88
2023-03-29T14:26:08.017Z,9.06
2023-03-29T14:36:19.069Z,9.00
2023-03-29T14:46:27.580Z,9.03
2023-03-29T14:56:35.956Z,8.86
2023-03-29T15:06:43.962Z,8.76
2023-03-29T15:16:51.589Z,8.73
2023-03-29T15:27:05.633Z,8.65
2023-03-29T15:37:11.989Z,8.71
2023-03-29T15:47:19.209Z,8.82
2023-03-29T15:57:26.936Z,8.69
2023-03-29T16:07:34.343Z,8.53
2023-03-29T16:17:42.029Z,8.25
2023-03-29T16:27:49.786Z,7.93
2023-03-29T16:37:57.538Z,7.66
2023-03-29T16:48:05.245Z,7.34
2023-03-29T16:58:13.530Z,6.97
2023-03-29T17:08:22.001Z,6.64
2023-03-29T17:18:29.732Z,6.30
2023-03-29T17:28:37.160Z,5.97
2023-03-29T17:38:44.329Z,5.67
2023-03-29T17:48:52.229Z,5.42
2023-03-29T17:58:59.555Z,5.18
2023-03-29T18:09:08.042Z,4.98
2023-03-29T18:19:14.261Z,4.77
2023-03-29T18:29:21.952Z,4.59
2023-03-29T18:39:28.577Z,4.39
2023-03-29T18:49:36.977Z,4.22
2023-03-29T18:59:44.185Z,4.08
2023-03-29T19:09:51.262Z,3.93
2023-03-29T19:19:58.676Z,3.77
2023-03-29T19:30:06.959Z,3.61
2023-03-29T19:40:13.955Z,3.44
2023-03-29T19:50:19.386Z,3.29
2023-03-29T20:00:24.750Z,3.18
2023-03-29T20:10:32.127Z,3.09
2023-03-29T20:20:39.292Z,3.01
2023-03-29T20:30:51.298Z,2.94
2023-03-29T20:40:59.221Z,2.84
2023-03-29T20:51:04.618Z,2.81
2023-03-29T21:01:12.637Z,2.83
2023-03-29T21:11:21.158Z,2.94
2023-03-29T21:21:29.726Z,3.11
2023-03-29T21:31:37.757Z,3.22
2023-03-29T21:41:45.067Z,3.24
2023-03-29T21:51:52.654Z,3.31
2023-03-29T22:02:00.152Z,3.46
2023-03-29T22:22:16.534Z,3.64
2023-03-29T22:32:23.904Z,3.80
2023-03-29T22:42:31.798Z,3.92
2023-03-29T22:52:39.012Z,4.06
2023-03-29T23:02:46.163Z,4.14
2023-03-29T23:12:53.941Z,4.21
2023-03-29T23:23:01.548Z,4.26
2023-03-29T23:33:10.593Z,4.31
2023-03-29T23:43:18.278Z,4.35
2023-03-29T23:53:25.757Z,4.40
